createdAt,value
2017-03-17T00:00:06.551Z,27.40
2017-03-17T00:01:06.332Z,32.22
2017-03-17T00:02:06.080Z,24.85
2017-03-17T00:03:05.834Z,28.07
2017-03-17T00:04:05.600Z,33.55
2017-03-17T00:05:05.351Z,37.38
2017-03-17T00:06:05.126Z,30.22
2017-03-17T00:07:04.893Z,33.42
2017-03-17T00:08:04.683Z,32.35
2017-03-17T00:09:04.637Z,27.97
2017-03-17T00:10:04.430Z,32.00
2017-03-17T00:11:04.178Z,28.33
2017-03-17T00:12:03.949Z,30.90
2017-03-17T00:13:03.720Z,27.63
2017-03-17T00:14:03.514Z,35.72
2017-03-17T00:15:03.309Z,31.07
2017-03-17T00:16:03.104Z,32.60
2017-03-17T00:17:03.650Z,35.27
2017-03-17T00:18:03.409Z,32.37
2017-03-17T00:19:03.200Z,36.00
2017-03-17T00:20:03.039Z,56.85
2017-03-17T00:21:02.829Z,40.02
2017-03-17T00:22:02.610Z,46.88
2017-03-17T00:23:02.359Z,45.80
2017-03-17T00:24:02.200Z,42.03
2017-03-17T00:25:01.961Z,42.43
2017-03-17T00:26:01.694Z,49.23
2017-03-17T00:27:01.475Z,45.65
2017-03-17T00:28:01.220Z,43.52
2017-03-17T00:29:01.191Z,53.52
2017-03-17T00:30:00.995Z,62.40
2017-03-17T00:31:00.789Z,58.37
2017-03-17T00:32:00.602Z,63.07
2017-03-17T00:33:00.357Z,68.12
2017-03-17T00:34:00.108Z,60.48
2017-03-17T00:35:00.642Z,72.78
2017-03-17T00:36:00.434Z,61.62
2017-03-17T00:37:00.252Z,65.78
2017-03-17T00:38:00.044Z,80.87
2017-03-17T00:38:59.827Z,63.72
2017-03-17T00:39:59.593Z,73.80
2017-03-17T00:40:59.380Z,72.28
2017-03-17T00:41:59.258Z,67.43
2017-03-17T00:42:59.005Z,78.87
2017-03-17T00:43:58.777Z,83.87
2017-03-17T00:44:58.591Z,72.70
2017-03-17T00:45:58.363Z,84.83
2017-03-17T00:46:58.149Z,101.17
2017-03-17T00:47:57.960Z,78.22
2017-03-17T00:48:57.774Z,78.38
2017-03-17T00:49:57.606Z,77.12
2017-03-17T00:50:57.343Z,82.10
2017-03-17T00:51:57.147Z,75.03
2017-03-17T00:52:56.993Z,64.20
2017-03-17T00:53:57.545Z,90.83
2017-03-17T00:54:57.704Z,83.32
2017-03-17T00:55:57.467Z,79.38
2017-03-17T00:57:02.502Z,89.25
2017-03-17T00:58:02.260Z,83.40
2017-03-17T00:59:02.028Z,94.70
2017-03-17T01:00:01.781Z,86.97
2017-03-17T01:01:01.644Z,96.83
2017-03-17T01:02:01.410Z,81.62
2017-03-17T01:03:01.195Z,97.02
2017-03-17T01:04:00.971Z,85.90
2017-03-17T01:05:00.774Z,103.45
2017-03-17T01:06:00.574Z,93.90
2017-03-17T01:07:00.316Z,95.27
2017-03-17T01:08:00.091Z,71.65
2017-03-17T01:08:59.891Z,104.02
2017-03-17T01:09:59.687Z,94.03
2017-03-17T01:10:59.477Z,83.37
2017-03-17T01:11:59.220Z,101.23
2017-03-17T01:12:58.976Z,85.17
2017-03-17T01:13:58.786Z,89.07
2017-03-17T01:14:58.544Z,74.88
2017-03-17T01:15:58.374Z,93.18
2017-03-17T01:16:58.170Z,86.45
2017-03-17T01:17:58.720Z,75.98
2017-03-17T01:18:58.468Z,83.00
2017-03-17T01:19:58.221Z,98.42
2017-03-17T01:20:57.962Z,65.38
2017-03-17T01:21:57.726Z,73.60
2017-03-17T01:22:57.495Z,79.57
2017-03-17T01:23:58.019Z,73.72
2017-03-17T01:24:58.503Z,84.65
2017-03-17T01:25:58.352Z,89.23
2017-03-17T01:26:58.138Z,91.63
2017-03-17T01:27:58.814Z,85.93
2017-03-17T01:28:58.568Z,94.90
2017-03-17T01:29:58.358Z,77.42
2017-03-17T01:30:58.856Z,82.47
2017-03-17T01:31:58.608Z,95.93
2017-03-17T01:32:58.403Z,92.42
2017-03-17T01:33:58.176Z,67.78
2017-03-17T01:34:57.994Z,82.67
2017-03-17T01:35:57.735Z,67.00
2017-03-17T01:36:57.519Z,47.93
2017-03-17T01:37:57.313Z,71.55
2017-03-17T01:38:57.085Z,73.60
2017-03-17T01:39:56.838Z,86.83
2017-03-17T01:40:56.617Z,57.18
2017-03-17T01:41:56.376Z,65.65
2017-03-17T01:42:56.153Z,68.20
2017-03-17T01:43:55.989Z,73.72
2017-03-17T01:44:56.500Z,71.17
2017-03-17T01:45:56.255Z,76.32
2017-03-17T01:46:56.035Z,76.95
2017-03-17T01:47:55.797Z,63.75
2017-03-17T01:48:55.597Z,67.88
2017-03-17T01:49:55.331Z,76.60
2017-03-17T01:50:55.101Z,62.12
2017-03-17T01:51:54.844Z,75.22
2017-03-17T01:52:54.589Z,73.88
2017-03-17T01:53:54.334Z,62.98
2017-03-17T01:54:54.099Z,78.85
2017-03-17T01:55:53.924Z,62.60
2017-03-17T01:56:53.721Z,61.30
2017-03-17T01:57:53.542Z,70.08
2017-03-17T01:58:53.339Z,68.60
2017-03-17T01:59:53.154Z,60.40
2017-03-17T02:00:52.908Z,68.92
2017-03-17T02:01:52.672Z,65.40
2017-03-17T02:02:52.442Z,49.65
2017-03-17T02:03:52.183Z,64.92
2017-03-17T02:04:51.918Z,61.07
2017-03-17T02:05:51.757Z,57.40
2017-03-17T02:06:51.502Z,69.07
2017-03-17T02:07:51.247Z,58.35
2017-03-17T02:08:51.008Z,60.28
2017-03-17T02:09:50.780Z,63.32
2017-03-17T02:10:50.560Z,57.98
2017-03-17T02:11:50.302Z,71.27
2017-03-17T02:12:50.030Z,69.37
2017-03-17T02:13:49.804Z,74.07
2017-03-17T02:14:49.604Z,60.95
2017-03-17T02:15:49.348Z,63.23
2017-03-17T02:16:49.099Z,57.87
2017-03-17T02:17:48.843Z,60.52
2017-03-17T02:18:48.583Z,62.32
2017-03-17T02:19:48.324Z,64.27
2017-03-17T02:20:48.094Z,62.42
2017-03-17T02:21:47.910Z,48.42
2017-03-17T02:22:48.960Z,55.92
2017-03-17T02:23:48.691Z,55.72
2017-03-17T02:24:48.436Z,65.87
2017-03-17T02:25:48.208Z,63.43
2017-03-17T02:26:47.987Z,65.42
2017-03-17T02:27:47.736Z,67.73
2017-03-17T02:28:47.586Z,55.57
2017-03-17T02:29:47.341Z,66.12
2017-03-17T02:30:47.130Z,59.78
2017-03-17T02:31:46.901Z,68.35
2017-03-17T02:32:46.706Z,64.55
2017-03-17T02:33:46.459Z,68.52
2017-03-17T02:34:46.201Z,54.88
2017-03-17T02:35:45.947Z,50.45
2017-03-17T02:36:45.682Z,63.92
2017-03-17T02:37:45.473Z,58.00
2017-03-17T02:38:45.258Z,59.77
2017-03-17T02:39:44.994Z,64.55
2017-03-17T02:40:44.776Z,56.93
2017-03-17T02:41:44.508Z,48.85
2017-03-17T02:42:44.247Z,56.25
2017-03-17T02:43:44.023Z,53.58
2017-03-17T02:44:43.799Z,58.53
2017-03-17T02:45:43.604Z,52.98
2017-03-17T02:46:43.327Z,56.53
2017-03-17T02:47:43.077Z,57.68
2017-03-17T02:48:42.856Z,52.62
2017-03-17T02:49:42.619Z,49.33
2017-03-17T02:50:42.360Z,39.80
2017-03-17T02:51:42.136Z,56.60
2017-03-17T02:52:41.914Z,54.40
2017-03-17T02:53:42.051Z,58.53
2017-03-17T02:54:41.876Z,54.60
2017-03-17T02:55:41.628Z,52.75
2017-03-17T02:56:41.418Z,56.92
2017-03-17T02:57:41.128Z,60.15
2017-03-17T02:58:40.909Z,54.42
2017-03-17T02:59:41.449Z,42.60
2017-03-17T03:00:41.219Z,60.37
2017-03-17T03:01:41.788Z,58.57
2017-03-17T03:02:41.540Z,48.78
2017-03-17T03:03:41.302Z,53.32
2017-03-17T03:04:41.068Z,53.95
2017-03-17T03:05:40.850Z,52.62
2017-03-17T03:06:40.648Z,42.58
2017-03-17T03:07:47.224Z,58.97
2017-03-17T03:08:46.967Z,42.37
2017-03-17T03:09:46.765Z,46.77
2017-03-17T03:10:46.575Z,60.30
2017-03-17T03:11:46.358Z,57.73
2017-03-17T03:12:46.140Z,48.85
2017-03-17T03:13:46.092Z,57.12
2017-03-17T03:14:45.848Z,49.88
2017-03-17T03:15:45.781Z,51.77
2017-03-17T03:16:45.525Z,53.23
2017-03-17T03:17:45.305Z,50.38
2017-03-17T03:18:45.248Z,46.38
2017-03-17T03:19:45.015Z,45.95
2017-03-17T03:20:44.836Z,43.33
2017-03-17T03:21:44.603Z,30.00
2017-03-17T03:22:44.588Z,49.85
2017-03-17T03:23:44.354Z,54.33
2017-03-17T03:24:44.096Z,59.08
2017-03-17T03:25:43.873Z,38.32
2017-03-17T03:26:43.603Z,43.30
2017-03-17T03:27:43.371Z,52.23
2017-03-17T03:28:43.126Z,39.67
2017-03-17T03:29:42.933Z,51.58
2017-03-17T03:30:42.684Z,45.60
2017-03-17T03:31:42.451Z,48.02
2017-03-17T03:32:42.239Z,45.15
2017-03-17T03:33:41.974Z,55.78
2017-03-17T03:34:41.765Z,51.98
2017-03-17T03:35:41.533Z,47.08
2017-03-17T03:36:41.270Z,47.32
2017-03-17T03:37:41.074Z,48.38
2017-03-17T03:38:41.537Z,43.93
2017-03-17T03:39:41.272Z,53.67
2017-03-17T03:40:41.111Z,46.35
2017-03-17T03:41:40.867Z,59.65
2017-03-17T03:42:40.610Z,64.28
2017-03-17T03:43:40.342Z,51.67
2017-03-17T03:44:40.081Z,64.87
2017-03-17T03:45:39.814Z,46.38
2017-03-17T03:46:39.604Z,58.00
2017-03-17T03:47:39.360Z,48.67
2017-03-17T03:48:39.102Z,41.63
2017-03-17T03:49:38.834Z,46.18
2017-03-17T03:50:38.625Z,40.62
2017-03-17T03:51:38.370Z,60.85
2017-03-17T03:52:38.133Z,44.02
2017-03-17T03:53:38.613Z,56.77
2017-03-17T03:54:38.362Z,58.45
2017-03-17T03:55:38.091Z,41.27
2017-03-17T03:56:37.820Z,41.68
2017-03-17T03:57:37.567Z,51.22
2017-03-17T03:58:37.322Z,47.77
2017-03-17T03:59:37.052Z,49.33
2017-03-17T04:00:36.803Z,48.30
2017-03-17T04:01:36.612Z,46.85
2017-03-17T04:02:37.084Z,42.38
2017-03-17T04:03:37.587Z,46.12
2017-03-17T04:04:37.389Z,42.68
2017-03-17T04:05:37.216Z,39.60
2017-03-17T04:06:36.975Z,49.62
2017-03-17T04:07:36.732Z,40.25
2017-03-17T04:08:36.467Z,45.62
2017-03-17T04:09:36.290Z,44.17
2017-03-17T04:10:36.022Z,42.28
2017-03-17T04:11:35.766Z,48.27
2017-03-17T04:12:35.480Z,39.78
2017-03-17T04:13:35.201Z,45.93
2017-03-17T04:14:35.057Z,50.95
2017-03-17T04:15:34.803Z,37.33
2017-03-17T04:16:34.586Z,40.40
2017-03-17T04:17:34.329Z,36.47
2017-03-17T04:18:34.051Z,36.88
2017-03-17T04:19:33.800Z,33.53
2017-03-17T04:20:33.657Z,47.85
2017-03-17T04:21:33.474Z,35.07
2017-03-17T04:22:33.199Z,39.40
2017-03-17T04:23:32.915Z,36.03
2017-03-17T04:24:32.667Z,36.97
2017-03-17T04:25:32.428Z,31.88
2017-03-17T04:26:32.178Z,37.32
2017-03-17T04:27:31.898Z,32.03
2017-03-17T04:28:31.783Z,41.92
2017-03-17T04:29:31.487Z,33.38
2017-03-17T04:30:31.201Z,36.55
2017-03-17T04:31:30.946Z,44.48
2017-03-17T04:32:30.695Z,33.37
2017-03-17T04:33:30.488Z,26.80
2017-03-17T04:34:30.228Z,27.50
2017-03-17T04:35:30.016Z,29.63
2017-03-17T04:36:29.781Z,30.07
2017-03-17T04:37:29.539Z,18.12
2017-03-17T04:38:29.310Z,34.55
2017-03-17T04:39:29.057Z,30.30
2017-03-17T04:40:29.555Z,26.03
2017-03-17T04:41:29.336Z,28.68
2017-03-17T04:42:29.113Z,25.07
2017-03-17T04:43:28.893Z,31.00
2017-03-17T04:44:28.632Z,20.63
2017-03-17T04:45:28.488Z,27.85
2017-03-17T04:46:29.045Z,32.52
2017-03-17T04:47:28.808Z,29.07
2017-03-17T04:48:28.583Z,27.05
2017-03-17T04:49:28.395Z,22.42
2017-03-17T04:50:28.256Z,25.28
2017-03-17T04:51:28.020Z,27.77
2017-03-17T04:52:27.865Z,23.55
2017-03-17T04:53:27.713Z,20.42
2017-03-17T04:54:28.196Z,26.93
2017-03-17T04:55:27.923Z,31.43
2017-03-17T04:56:27.668Z,24.37
2017-03-17T04:57:27.446Z,27.75
2017-03-17T04:58:27.217Z,29.32
2017-03-17T04:59:26.952Z,23.73
2017-03-17T05:00:26.713Z,18.60
2017-03-17T05:01:26.503Z,24.40
2017-03-17T05:02:26.271Z,19.05
2017-03-17T05:03:26.047Z,24.50
2017-03-17T05:04:25.848Z,32.17
2017-03-17T05:05:26.379Z,15.58
2017-03-17T05:06:26.172Z,22.80
2017-03-17T05:07:25.938Z,20.88
2017-03-17T05:08:25.776Z,22.05
2017-03-17T05:09:26.261Z,23.03
2017-03-17T05:10:26.037Z,27.50
2017-03-17T05:11:25.772Z,19.68
2017-03-17T05:12:25.517Z,20.53
2017-03-17T05:13:25.273Z,26.70
2017-03-17T05:14:25.020Z,21.88
2017-03-17T05:15:24.781Z,27.38
2017-03-17T05:16:24.518Z,19.93
2017-03-17T05:17:24.319Z,16.15
2017-03-17T05:18:24.069Z,23.22
2017-03-17T05:19:23.825Z,16.88
2017-03-17T05:20:23.551Z,20.07
2017-03-17T05:21:23.327Z,17.97
2017-03-17T05:22:23.101Z,24.88
2017-03-17T05:23:23.634Z,24.00
2017-03-17T05:24:23.386Z,19.83
2017-03-17T05:25:23.164Z,21.72
2017-03-17T05:26:22.967Z,16.05
2017-03-17T05:27:22.755Z,22.52
2017-03-17T05:28:22.509Z,16.58
2017-03-17T05:29:22.260Z,23.22
2017-03-17T05:30:22.025Z,15.80
2017-03-17T05:31:21.765Z,14.75
2017-03-17T05:32:21.550Z,20.40
2017-03-17T05:33:21.321Z,17.82
2017-03-17T05:34:28.269Z,16.65
2017-03-17T05:35:28.001Z,13.58
2017-03-17T05:36:27.839Z,17.12
2017-03-17T05:37:28.236Z,21.38
2017-03-17T05:38:28.035Z,15.48
2017-03-17T05:39:27.804Z,9.62
2017-03-17T05:40:27.636Z,17.50
2017-03-17T05:41:27.359Z,21.75
2017-03-17T05:42:27.287Z,10.93
2017-03-17T05:43:27.073Z,23.65
2017-03-17T05:44:27.007Z,17.83
2017-03-17T05:45:26.768Z,15.58
2017-03-17T05:46:26.508Z,15.60
2017-03-17T05:47:26.314Z,14.17
2017-03-17T05:48:26.159Z,11.12
2017-03-17T05:49:26.420Z,12.95
2017-03-17T05:50:26.261Z,12.55
2017-03-17T05:51:26.032Z,21.75
2017-03-17T05:52:25.900Z,11.82
2017-03-17T05:53:25.626Z,14.50
2017-03-17T05:54:25.384Z,9.30
2017-03-17T05:55:25.123Z,16.32
2017-03-17T05:56:24.870Z,12.32
2017-03-17T05:57:25.003Z,10.42
2017-03-17T05:58:24.807Z,7.73
2017-03-17T05:59:24.602Z,18.30
2017-03-17T06:00:24.393Z,13.75
2017-03-17T06:01:24.213Z,14.58
2017-03-17T06:02:23.988Z,8.30
2017-03-17T06:03:27.965Z,8.98
2017-03-17T06:04:27.701Z,9.65
2017-03-17T06:05:27.418Z,10.03
2017-03-17T06:06:27.156Z,19.27
2017-03-17T06:07:27.704Z,9.68
2017-03-17T06:08:27.455Z,7.57
2017-03-17T06:09:27.244Z,7.38
2017-03-17T06:10:26.983Z,18.02
2017-03-17T06:11:27.463Z,10.53
2017-03-17T06:12:27.589Z,9.38
2017-03-17T06:13:27.860Z,13.20
2017-03-17T06:14:27.643Z,23.55
2017-03-17T06:15:27.408Z,13.30
2017-03-17T06:16:27.231Z,10.57
2017-03-17T06:17:27.020Z,9.50
2017-03-17T06:18:26.800Z,9.73
2017-03-17T06:19:27.603Z,11.43
2017-03-17T06:20:27.413Z,9.08
2017-03-17T06:21:40.948Z,19.58
2017-03-17T06:22:42.366Z,13.62
2017-03-17T06:23:42.720Z,10.13
2017-03-17T06:24:44.606Z,10.80
2017-03-17T06:25:44.437Z,9.57
2017-03-17T06:26:44.218Z,12.47
2017-03-17T06:27:44.009Z,8.60
2017-03-17T06:28:43.862Z,7.45
2017-03-17T06:29:43.675Z,8.00
2017-03-17T06:30:43.437Z,10.38
2017-03-17T06:31:43.248Z,4.15
2017-03-17T06:32:43.061Z,9.12
2017-03-17T06:33:42.903Z,6.02
2017-03-17T06:34:42.672Z,5.32
2017-03-17T06:35:43.203Z,19.40
2017-03-17T06:36:43.760Z,5.65
2017-03-17T06:37:43.581Z,14.32
2017-03-17T06:38:43.354Z,12.67
2017-03-17T06:39:43.885Z,19.13
2017-03-17T06:40:43.647Z,17.25
2017-03-17T06:41:43.480Z,7.08
2017-03-17T06:42:43.478Z,9.88
2017-03-17T06:43:44.028Z,15.18
2017-03-17T06:44:43.861Z,16.15
2017-03-17T06:45:43.620Z,16.78
2017-03-17T06:46:43.458Z,14.08
2017-03-17T06:47:43.347Z,8.45
2017-03-17T06:48:43.173Z,7.70
2017-03-17T06:49:42.952Z,10.02
2017-03-17T06:50:42.760Z,9.42
2017-03-17T06:51:42.559Z,9.30
2017-03-17T06:52:42.364Z,9.75
2017-03-17T06:53:42.192Z,10.42
2017-03-17T06:54:42.004Z,9.43
2017-03-17T06:55:41.830Z,12.45
2017-03-17T06:56:41.657Z,6.83
2017-03-17T06:57:41.541Z,15.15
2017-03-17T06:58:41.308Z,11.80
2017-03-17T06:59:41.119Z,17.85
2017-03-17T07:00:40.936Z,6.93
2017-03-17T07:01:40.700Z,27.90
2017-03-17T07:02:40.488Z,15.25
2017-03-17T07:03:40.544Z,15.72
2017-03-17T07:04:41.110Z,17.35
2017-03-17T07:05:40.909Z,15.07
2017-03-17T07:06:40.671Z,14.95
2017-03-17T07:07:41.257Z,10.35
2017-03-17T07:08:41.847Z,13.63
2017-03-17T07:09:41.673Z,18.27
2017-03-17T07:10:41.463Z,14.92
2017-03-17T07:11:41.231Z,13.53
2017-03-17T07:12:41.047Z,9.92
2017-03-17T07:13:41.275Z,5.50
2017-03-17T07:14:41.075Z,13.10
2017-03-17T07:15:40.879Z,19.07
2017-03-17T07:16:40.668Z,10.52
2017-03-17T07:17:40.513Z,23.88
2017-03-17T07:18:40.407Z,17.67
2017-03-17T07:19:40.186Z,16.62
2017-03-17T07:20:40.005Z,10.78
2017-03-17T07:21:39.814Z,12.62
2017-03-17T07:22:39.608Z,13.80
2017-03-17T07:23:39.413Z,9.75
2017-03-17T07:24:39.255Z,19.13
2017-03-17T07:25:39.022Z,10.75
2017-03-17T07:26:38.832Z,19.95
2017-03-17T07:27:39.356Z,16.87
2017-03-17T07:28:39.172Z,19.60
2017-03-17T07:29:38.946Z,8.32
2017-03-17T07:30:38.739Z,12.83
2017-03-17T07:31:38.532Z,11.68
2017-03-17T07:32:38.324Z,16.78
2017-03-17T07:33:38.099Z,12.72
2017-03-17T07:34:37.925Z,16.02
2017-03-17T07:35:37.730Z,17.40
2017-03-17T07:36:37.587Z,8.10
2017-03-17T07:37:38.127Z,12.17
2017-03-17T07:38:37.982Z,17.50
2017-03-17T07:39:37.770Z,10.55
2017-03-17T07:40:37.637Z,10.20
2017-03-17T07:41:37.456Z,13.92
2017-03-17T07:42:37.204Z,19.95
2017-03-17T07:43:36.997Z,12.88
2017-03-17T07:44:36.787Z,13.97
2017-03-17T07:45:36.620Z,15.65
2017-03-17T07:46:36.477Z,5.60
2017-03-17T07:47:37.048Z,6.32
2017-03-17T07:48:36.882Z,14.62
2017-03-17T07:49:36.769Z,9.23
2017-03-17T07:50:36.569Z,27.95
2017-03-17T07:51:36.376Z,11.22
2017-03-17T07:52:36.165Z,16.95
2017-03-17T07:53:36.020Z,17.02
2017-03-17T07:54:35.857Z,13.50
2017-03-17T07:55:36.421Z,9.87
2017-03-17T07:56:36.166Z,7.03
2017-03-17T07:57:35.899Z,10.12
2017-03-17T07:58:35.639Z,7.75
2017-03-17T07:59:36.110Z,11.00
2017-03-17T08:00:35.959Z,16.07
2017-03-17T08:01:35.828Z,14.23
2017-03-17T08:02:44.597Z,17.52
2017-03-17T08:03:45.079Z,11.83
2017-03-17T08:04:44.810Z,19.92
2017-03-17T08:05:44.588Z,15.30
2017-03-17T08:06:44.303Z,10.03
2017-03-17T08:07:44.029Z,10.28
2017-03-17T08:08:43.761Z,7.45
2017-03-17T08:09:43.481Z,13.23
2017-03-17T08:10:43.237Z,17.93
2017-03-17T08:11:43.745Z,7.93
2017-03-17T08:12:44.233Z,13.22
2017-03-17T08:13:43.973Z,10.55
2017-03-17T08:14:45.668Z,11.42
2017-03-17T08:15:45.408Z,12.72
2017-03-17T08:16:45.110Z,18.35
2017-03-17T08:17:44.856Z,15.57
2017-03-17T08:18:44.575Z,10.32
2017-03-17T08:19:44.357Z,11.70
2017-03-17T08:20:44.127Z,14.42
2017-03-17T08:21:44.600Z,26.22
2017-03-17T08:22:44.339Z,16.83
2017-03-17T08:23:44.360Z,9.78
2017-03-17T08:24:44.124Z,18.72
2017-03-17T08:25:43.873Z,14.02
2017-03-17T08:26:43.627Z,16.37
2017-03-17T08:27:43.360Z,14.17
2017-03-17T08:28:43.091Z,17.60
2017-03-17T08:29:42.842Z,10.37
2017-03-17T08:30:42.614Z,16.05
2017-03-17T08:31:42.461Z,12.00
2017-03-17T08:32:42.225Z,16.62
2017-03-17T08:33:41.953Z,6.08
2017-03-17T08:34:41.779Z,11.95
2017-03-17T08:35:41.542Z,9.77
2017-03-17T08:36:41.283Z,2.53
2017-03-17T08:37:41.056Z,8.62
2017-03-17T08:38:40.811Z,9.08
2017-03-17T08:39:40.630Z,4.23
2017-03-17T08:40:41.107Z,12.25
2017-03-17T08:41:40.855Z,12.17
2017-03-17T08:42:41.413Z,3.43
2017-03-17T08:43:41.139Z,9.63
2017-03-17T08:44:40.900Z,9.82
2017-03-17T08:45:40.647Z,6.83
2017-03-17T08:46:40.402Z,14.67
2017-03-17T08:47:40.160Z,13.35
2017-03-17T08:48:39.893Z,12.23
2017-03-17T08:49:39.654Z,10.32
2017-03-17T08:50:39.393Z,7.15
2017-03-17T08:51:39.144Z,6.03
2017-03-17T08:52:38.901Z,8.57
2017-03-17T08:53:39.282Z,10.33
2017-03-17T08:54:39.084Z,12.03
2017-03-17T08:55:39.082Z,7.08
2017-03-17T08:56:38.843Z,5.67
2017-03-17T08:57:38.572Z,11.60
2017-03-17T08:58:38.308Z,12.40
2017-03-17T08:59:38.818Z,1.97
2017-03-17T09:00:39.349Z,13.23
2017-03-17T09:01:39.090Z,6.85
2017-03-17T09:02:38.847Z,13.97
2017-03-17T09:03:39.342Z,11.48
2017-03-17T09:04:39.138Z,9.33
2017-03-17T09:05:38.866Z,15.58
2017-03-17T09:06:38.635Z,15.07
2017-03-17T09:07:38.431Z,8.48
2017-03-17T09:08:38.173Z,14.02
2017-03-17T09:09:38.263Z,13.17
2017-03-17T09:10:37.983Z,7.90
2017-03-17T09:11:37.712Z,14.32
2017-03-17T09:12:37.470Z,15.98
2017-03-17T09:13:37.237Z,14.88
2017-03-17T09:14:36.987Z,13.80
2017-03-17T09:15:36.751Z,7.85
2017-03-17T09:16:36.508Z,9.22
2017-03-17T09:17:36.276Z,8.12
2017-03-17T09:18:36.742Z,16.05
2017-03-17T09:19:36.537Z,22.38
2017-03-17T09:20:36.292Z,10.72
2017-03-17T09:21:36.124Z,5.53
2017-03-17T09:22:35.916Z,9.30
2017-03-17T09:23:35.666Z,9.85
2017-03-17T09:24:35.860Z,12.72
2017-03-17T09:25:35.619Z,10.42
2017-03-17T09:26:35.384Z,15.15
2017-03-17T09:27:35.239Z,12.60
2017-03-17T09:28:34.962Z,16.27
2017-03-17T09:29:34.719Z,15.23
2017-03-17T09:30:34.496Z,9.60
2017-03-17T09:31:34.266Z,13.60
2017-03-17T09:32:34.004Z,11.43
2017-03-17T09:33:33.733Z,8.02
2017-03-17T09:34:33.437Z,5.40
2017-03-17T09:35:33.156Z,9.30
2017-03-17T09:36:32.874Z,18.67
2017-03-17T09:37:32.667Z,8.33
2017-03-17T09:38:32.447Z,6.42
2017-03-17T09:39:32.215Z,13.88
2017-03-17T09:40:32.744Z,13.28
2017-03-17T09:41:33.212Z,6.25
2017-03-17T09:42:32.950Z,8.50
2017-03-17T09:43:32.724Z,9.23
2017-03-17T09:44:32.474Z,15.05
2017-03-17T09:45:32.251Z,5.08
2017-03-17T09:46:31.980Z,11.60
2017-03-17T09:47:31.699Z,9.62
2017-03-17T09:48:31.423Z,10.68
2017-03-17T09:49:31.155Z,4.60
2017-03-17T09:50:30.943Z,10.20
2017-03-17T09:51:30.654Z,11.65
2017-03-17T09:52:30.419Z,5.77
2017-03-17T09:53:30.169Z,11.17
2017-03-17T09:54:29.898Z,7.35
2017-03-17T09:55:29.681Z,4.98
2017-03-17T09:56:29.415Z,6.35
2017-03-17T09:57:29.126Z,7.60
2017-03-17T09:58:28.894Z,11.57
2017-03-17T09:59:28.628Z,10.57
2017-03-17T10:00:28.466Z,19.68
2017-03-17T10:01:28.266Z,13.43
2017-03-17T10:02:28.747Z,6.68
2017-03-17T10:03:28.512Z,11.37
2017-03-17T10:04:28.229Z,11.97
2017-03-17T10:05:27.995Z,3.98
2017-03-17T10:06:27.710Z,14.32
2017-03-17T10:07:27.483Z,5.62
2017-03-17T10:08:27.956Z,6.28
2017-03-17T10:09:28.721Z,13.68
2017-03-17T10:10:28.483Z,7.68
2017-03-17T10:11:28.972Z,5.40
2017-03-17T10:12:28.708Z,7.13
2017-03-17T10:13:28.461Z,11.45
2017-03-17T10:14:28.200Z,8.47
2017-03-17T10:15:27.927Z,17.18
2017-03-17T10:16:27.661Z,15.40
2017-03-17T10:17:27.382Z,10.95
2017-03-17T10:18:27.112Z,12.63
2017-03-17T10:19:26.857Z,3.90
2017-03-17T10:20:26.635Z,16.95
2017-03-17T10:21:29.431Z,5.12
2017-03-17T10:22:29.150Z,12.98
2017-03-17T10:23:28.867Z,13.55
2017-03-17T10:24:28.649Z,5.77
2017-03-17T10:25:28.406Z,11.42
2017-03-17T10:26:28.216Z,12.15
2017-03-17T10:27:28.838Z,7.73
2017-03-17T10:28:28.611Z,10.88
2017-03-17T10:29:28.353Z,7.70
2017-03-17T10:30:28.802Z,8.25
2017-03-17T10:31:28.635Z,11.17
2017-03-17T10:32:28.448Z,8.70
2017-03-17T10:33:28.235Z,11.33
2017-03-17T10:34:27.992Z,3.08
2017-03-17T10:35:27.823Z,9.40
2017-03-17T10:36:27.776Z,12.45
2017-03-17T10:37:31.074Z,8.80
2017-03-17T10:38:30.846Z,7.62
2017-03-17T10:39:30.584Z,8.48
2017-03-17T10:40:30.360Z,2.58
2017-03-17T10:41:30.922Z,8.12
2017-03-17T10:42:30.679Z,8.17
2017-03-17T10:43:30.432Z,4.02
2017-03-17T10:44:30.164Z,9.30
2017-03-17T10:45:29.913Z,14.97
2017-03-17T10:46:29.658Z,15.85
2017-03-17T10:47:29.382Z,8.32
2017-03-17T10:48:29.894Z,7.15
2017-03-17T10:49:30.349Z,8.50
2017-03-17T10:50:30.111Z,4.90
2017-03-17T10:51:29.880Z,11.77
2017-03-17T10:52:29.655Z,8.95
2017-03-17T10:53:29.432Z,7.38
2017-03-17T10:54:29.210Z,10.28
2017-03-17T10:55:29.707Z,7.70
2017-03-17T10:56:29.476Z,5.75
2017-03-17T10:57:29.228Z,11.05
2017-03-17T10:58:29.747Z,12.88
2017-03-17T10:59:30.245Z,9.13
2017-03-17T11:00:30.287Z,9.87
2017-03-17T11:01:30.079Z,7.80
2017-03-17T11:02:30.575Z,4.05
2017-03-17T11:03:30.379Z,9.82
2017-03-17T11:04:30.124Z,11.37
2017-03-17T11:05:29.878Z,6.48
2017-03-17T11:06:29.657Z,14.98
2017-03-17T11:07:29.405Z,7.77
2017-03-17T11:08:29.890Z,7.70
2017-03-17T11:09:29.630Z,9.15
2017-03-17T11:10:29.394Z,7.48
2017-03-17T11:11:29.162Z,9.32
2017-03-17T11:12:28.923Z,11.70
2017-03-17T11:13:28.693Z,5.98
2017-03-17T11:14:29.167Z,11.62
2017-03-17T11:15:28.920Z,17.33
2017-03-17T11:16:28.680Z,10.47
2017-03-17T11:17:28.446Z,5.67
2017-03-17T11:18:28.949Z,7.02
2017-03-17T11:19:28.692Z,12.03
2017-03-17T11:20:28.556Z,10.47
2017-03-17T11:21:29.097Z,7.33
2017-03-17T11:22:28.898Z,9.38
2017-03-17T11:23:28.638Z,9.85
2017-03-17T11:24:29.145Z,9.95
2017-03-17T11:25:28.889Z,14.98
2017-03-17T11:26:28.697Z,15.00
2017-03-17T11:27:28.534Z,9.70
2017-03-17T11:28:28.343Z,11.27
2017-03-17T11:29:28.107Z,8.30
2017-03-17T11:30:28.587Z,11.57
2017-03-17T11:31:28.777Z,8.87
2017-03-17T11:32:28.614Z,12.47
2017-03-17T11:33:28.391Z,13.92
2017-03-17T11:34:28.138Z,9.35
2017-03-17T11:35:28.627Z,12.07
2017-03-17T11:36:28.363Z,5.33
2017-03-17T11:37:28.087Z,5.87
2017-03-17T11:38:27.828Z,3.75
2017-03-17T11:39:27.564Z,12.47
2017-03-17T11:40:27.304Z,6.05
2017-03-17T11:41:27.071Z,2.77
2017-03-17T11:42:27.600Z,8.58
2017-03-17T11:43:27.338Z,10.32
2017-03-17T11:44:27.152Z,4.50
2017-03-17T11:45:26.911Z,14.37
2017-03-17T11:46:26.808Z,12.00
2017-03-17T11:47:26.629Z,8.35
2017-03-17T11:48:26.870Z,8.72
2017-03-17T11:49:26.709Z,11.07
2017-03-17T11:50:27.203Z,9.02
2017-03-17T11:51:26.961Z,11.37
2017-03-17T11:52:26.758Z,13.72
2017-03-17T11:53:26.561Z,7.45
2017-03-17T11:54:26.303Z,9.17
2017-03-17T11:55:26.091Z,4.52
2017-03-17T11:56:25.924Z,8.98
2017-03-17T11:57:26.491Z,10.78
2017-03-17T11:58:26.254Z,8.15
2017-03-17T11:59:26.040Z,12.15
2017-03-17T12:00:25.799Z,8.53
2017-03-17T12:01:25.566Z,12.63
2017-03-17T12:02:25.323Z,10.72
2017-03-17T12:03:25.098Z,12.22
2017-03-17T12:04:24.837Z,10.42
2017-03-17T12:05:24.588Z,9.00
2017-03-17T12:06:24.411Z,10.23
2017-03-17T12:07:24.177Z,5.82
2017-03-17T12:08:23.909Z,13.42
2017-03-17T12:09:23.956Z,8.72
2017-03-17T12:10:23.726Z,14.47
2017-03-17T12:11:23.532Z,4.85
2017-03-17T12:12:23.285Z,10.13
2017-03-17T12:13:23.029Z,7.83
2017-03-17T12:14:22.787Z,18.10
2017-03-17T12:15:22.541Z,10.38
2017-03-17T12:16:22.304Z,4.32
2017-03-17T12:17:22.052Z,7.13
2017-03-17T12:18:21.840Z,10.15
2017-03-17T12:19:21.611Z,11.28
2017-03-17T12:20:21.445Z,10.62
2017-03-17T12:21:21.223Z,11.67
2017-03-17T12:22:21.015Z,13.23
2017-03-17T12:23:20.757Z,11.53
2017-03-17T12:24:20.533Z,6.10
2017-03-17T12:25:20.386Z,8.35
2017-03-17T12:26:21.260Z,4.77
2017-03-17T12:27:21.026Z,12.72
2017-03-17T12:28:20.775Z,9.45
2017-03-17T12:29:20.568Z,5.93
2017-03-17T12:30:20.322Z,9.63
2017-03-17T12:31:20.103Z,7.53
2017-03-17T12:32:19.969Z,12.15
2017-03-17T12:33:19.761Z,15.47
2017-03-17T12:34:19.531Z,14.03
2017-03-17T12:35:19.313Z,23.08
2017-03-17T12:36:19.808Z,5.97
2017-03-17T12:37:19.563Z,8.25
2017-03-17T12:38:19.404Z,12.27
2017-03-17T12:39:19.150Z,9.57
2017-03-17T12:40:18.933Z,1.68
2017-03-17T12:41:18.670Z,7.02
2017-03-17T12:42:18.505Z,8.00
2017-03-17T12:43:19.292Z,11.45
2017-03-17T12:44:19.078Z,11.28
2017-03-17T12:45:18.901Z,10.37
2017-03-17T12:46:18.707Z,15.55
2017-03-17T12:47:18.457Z,8.75
2017-03-17T12:48:18.231Z,6.88
2017-03-17T12:49:18.009Z,6.45
2017-03-17T12:50:17.843Z,11.50
2017-03-17T12:51:17.625Z,3.95
2017-03-17T12:52:18.149Z,17.00
2017-03-17T12:53:17.900Z,8.53
2017-03-17T12:54:17.701Z,11.00
2017-03-17T12:55:17.446Z,11.92
2017-03-17T12:56:17.196Z,11.90
2017-03-17T12:57:17.003Z,20.95